sensor_id;sensor_type;location;lat;lon;timestamp;pressure;altitude;pressure_sealevel;temperature;humidity
44481;BME280;30184;42.018;23.670;2022-10-31T00:01:39;91648.19;;;5.83;74.28
44481;BME280;30184;42.018;23.670;2022-10-31T00:04:08;92061.13;;;8.59;74.50
44481;BME280;30184;42.018;23.670;2022-10-31T00:06:37;92075.75;;;8.62;74.57
44481;BME280;30184;42.018;23.670;2022-10-31T00:09:09;91892.78;;;8.18;74.80
44481;BME280;30184;42.018;23.670;2022-10-31T00:11:38;91798.03;;;7.41;74.57
44481;BME280;30184;42.018;23.670;2022-10-31T00:14:08;91588.81;;;5.56;74.54
44481;BME280;30184;42.018;23.670;2022-10-31T00:16:37;91745.72;;;6.56;74.56
44481;BME280;30184;42.018;23.670;2022-10-31T00:19:08;91913.84;;;8.00;74.88
44481;BME280;30184;42.018;23.670;2022-10-31T00:21:36;91678.34;;;6.87;74.99
44481;BME280;30184;42.018;23.670;2022-10-31T00:24:07;91975.63;;;8.66;74.78
44481;BME280;30184;42.018;23.670;2022-10-31T00:26:36;91953.19;;;8.69;74.85
44481;BME280;30184;42.018;23.670;2022-10-31T00:29:05;91808.00;;;7.78;74.80
44481;BME280;30184;42.018;23.670;2022-10-31T00:31:34;92144.06;;;8.73;75.00
44481;BME280;30184;42.018;23.670;2022-10-31T00:34:04;91690.66;;;6.91;75.10
44481;BME280;30184;42.018;23.670;2022-10-31T00:36:35;91658.19;;;5.82;74.90
44481;BME280;30184;42.018;23.670;2022-10-31T00:39:04;91378.34;;;4.93;74.96
44481;BME280;30184;42.018;23.670;2022-10-31T00:41:34;91755.75;;;6.56;75.68
44481;BME280;30184;42.018;23.670;2022-10-31T00:44:07;91949.25;;;8.73;75.63
44481;BME280;30184;42.018;23.670;2022-10-31T00:46:36;92025.78;;;8.74;75.88
44481;BME280;30184;42.018;23.670;2022-10-31T00:49:05;91706.88;;;7.22;75.53
44481;BME280;30184;42.018;23.670;2022-10-31T00:51:34;91577.06;;;5.77;75.52
44481;BME280;30184;42.018;23.670;2022-10-31T00:54:04;91694.06;;;6.95;75.53
44481;BME280;30184;42.018;23.670;2022-10-31T00:56:36;91573.41;;;6.39;75.45
44481;BME280;30184;42.018;23.670;2022-10-31T00:59:05;91585.50;;;6.57;75.60
44481;BME280;30184;42.018;23.670;2022-10-31T01:01:35;91874.34;;;8.43;75.69
44481;BME280;30184;42.018;23.670;2022-10-31T01:04:04;91555.34;;;6.32;75.08
44481;BME280;30184;42.018;23.670;2022-10-31T01:06:33;91751.66;;;6.78;74.91
44481;BME280;30184;42.018;23.670;2022-10-31T01:09:02;91985.34;;;8.90;75.42
44481;BME280;30184;42.018;23.670;2022-10-31T01:11:31;91837.03;;;7.36;75.31
44481;BME280;30184;42.018;23.670;2022-10-31T01:14:04;91741.81;;;7.32;75.39
44481;BME280;30184;42.018;23.670;2022-10-31T01:16:33;91729.97;;;6.89;75.68
44481;BME280;30184;42.018;23.670;2022-10-31T01:19:03;91551.53;;;5.95;75.51
44481;BME280;30184;42.018;23.670;2022-10-31T01:21:32;91620.69;;;6.77;75.34
44481;BME280;30184;42.018;23.670;2022-10-31T01:24:01;91975.09;;;8.47;75.57
44481;BME280;30184;42.018;23.670;2022-10-31T01:26:32;91708.47;;;7.16;75.82
44481;BME280;30184;42.018;23.670;2022-10-31T01:29:05;92014.03;;;8.84;75.97
44481;BME280;30184;42.018;23.670;2022-10-31T01:31:37;91592.50;;;6.51;75.76
44481;BME280;30184;42.018;23.670;2022-10-31T01:34:06;91807.38;;;7.33;75.45
44481;BME280;30184;42.018;23.670;2022-10-31T01:36:37;91679.69;;;7.05;75.46
44481;BME280;30184;42.018;23.670;2022-10-31T01:39:08;91967.00;;;8.74;75.52
44481;BME280;30184;42.018;23.670;2022-10-31T01:41:40;91919.91;;;8.11;75.55
44481;BME280;30184;42.018;23.670;2022-10-31T01:47:21;91954.97;;;8.79;75.51
44481;BME280;30184;42.018;23.670;2022-10-31T01:49:55;91946.25;;;8.68;75.42
44481;BME280;30184;42.018;23.670;2022-10-31T01:52:27;91643.09;;;6.36;75.08
44481;BME280;30184;42.018;23.670;2022-10-31T01:55:01;91680.13;;;5.81;75.03
44481;BME280;30184;42.018;23.670;2022-10-31T01:57:33;91912.91;;;8.47;75.38
44481;BME280;30184;42.018;23.670;2022-10-31T02:00:07;91886.56;;;7.91;75.28
44481;BME280;30184;42.018;23.670;2022-10-31T02:02:42;91540.81;;;5.92;75.64
44481;BME280;30184;42.018;23.670;2022-10-31T02:05:16;91719.75;;;6.32;75.97
44481;BME280;30184;42.018;23.670;2022-10-31T02:07:53;91669.75;;;6.27;76.04
44481;BME280;30184;42.018;23.670;2022-10-31T02:10:27;91887.78;;;8.16;76.08
44481;BME280;30184;42.018;23.670;2022-10-31T02:12:58;91675.28;;;6.51;76.76
44481;BME280;30184;42.018;23.670;2022-10-31T02:15:31;91818.22;;;7.29;77.15
44481;BME280;30184;42.018;23.670;2022-10-31T02:18:03;91706.81;;;6.16;76.83
44481;BME280;30184;42.018;23.670;2022-10-31T02:20:35;91718.78;;;6.90;77.01
44481;BME280;30184;42.018;23.670;2022-10-31T02:23:40;91802.00;;;6.51;77.12
44481;BME280;30184;42.018;23.670;2022-10-31T02:26:38;91863.47;;;7.52;76.84
44481;BME280;30184;42.018;23.670;2022-10-31T02:29:33;91935.38;;;7.76;76.87
44481;BME280;30184;42.018;23.670;2022-10-31T02:32:09;91997.25;;;8.35;77.44
44481;BME280;30184;42.018;23.670;2022-10-31T02:34:45;91787.34;;;6.52;77.17
44481;BME280;30184;42.018;23.670;2022-10-31T02:37:23;91778.22;;;5.80;76.88
44481;BME280;30184;42.018;23.670;2022-10-31T02:39:59;91636.72;;;6.20;76.73
44481;BME280;30184;42.018;23.670;2022-10-31T02:42:51;91568.94;;;5.39;76.78
44481;BME280;30184;42.018;23.670;2022-10-31T02:45:29;91867.88;;;7.35;77.21
44481;BME280;30184;42.018;23.670;2022-10-31T02:48:07;91916.84;;;8.09;77.57
44481;BME280;30184;42.018;23.670;2022-10-31T02:50:43;91851.59;;;7.42;78.13
44481;BME280;30184;42.018;23.670;2022-10-31T02:53:16;91873.00;;;7.26;77.82
44481;BME280;30184;42.018;23.670;2022-10-31T02:55:54;91716.19;;;6.46;78.12
44481;BME280;30184;42.018;23.670;2022-10-31T02:58:28;91718.03;;;6.52;78.23
44481;BME280;30184;42.018;23.670;2022-10-31T03:01:20;91708.03;;;5.53;77.67
44481;BME280;30184;42.018;23.670;2022-10-31T03:06:57;91710.03;;;6.45;77.67
44481;BME280;30184;42.018;23.670;2022-10-31T03:09:33;91432.59;;;4.84;77.62
44481;BME280;30184;42.018;23.670;2022-10-31T03:12:11;91853.97;;;6.99;77.40
44481;BME280;30184;42.018;23.670;2022-10-31T03:14:49;91908.81;;;8.02;77.80
44481;BME280;30184;42.018;23.670;2022-10-31T03:17:24;91620.13;;;5.29;77.71
44481;BME280;30184;42.018;23.670;2022-10-31T03:19:58;91549.72;;;5.82;78.19
44481;BME280;30184;42.018;23.670;2022-10-31T03:22:31;91731.50;;;6.56;78.05
44481;BME280;30184;42.018;23.670;2022-10-31T03:25:04;91740.50;;;6.39;77.99
44481;BME280;30184;42.018;23.670;2022-10-31T03:27:37;91669.84;;;5.06;77.89
44481;BME280;30184;42.018;23.670;2022-10-31T03:30:08;91646.94;;;5.94;77.87
44481;BME280;30184;42.018;23.670;2022-10-31T03:32:54;91757.13;;;6.71;78.15
44481;BME280;30184;42.018;23.670;2022-10-31T03:35:27;91527.88;;;4.76;77.90
44481;BME280;30184;42.018;23.670;2022-10-31T03:38:00;92067.38;;;8.53;78.07
44481;BME280;30184;42.018;23.670;2022-10-31T03:40:35;91642.53;;;6.52;77.70
44481;BME280;30184;42.018;23.670;2022-10-31T03:43:08;91888.59;;;7.83;77.54
44481;BME280;30184;42.018;23.670;2022-10-31T03:45:41;91859.00;;;7.38;77.56
44481;BME280;30184;42.018;23.670;2022-10-31T03:48:13;91897.84;;;7.82;77.42
44481;BME280;30184;42.018;23.670;2022-10-31T03:50:49;91847.84;;;6.95;77.18
44481;BME280;30184;42.018;23.670;2022-10-31T03:53:24;91842.88;;;7.31;76.86
44481;BME280;30184;42.018;23.670;2022-10-31T03:55:59;92021.91;;;7.66;77.16
44481;BME280;30184;42.018;23.670;2022-10-31T03:58:35;91726.28;;;5.83;77.01
44481;BME280;30184;42.018;23.670;2022-10-31T04:01:09;92015.41;;;8.38;77.38
44481;BME280;30184;42.018;23.670;2022-10-31T04:03:41;91821.47;;;6.69;77.26
44481;BME280;30184;42.018;23.670;2022-10-31T04:06:14;91791.28;;;6.40;77.21
44481;BME280;30184;42.018;23.670;2022-10-31T04:08:49;92063.53;;;8.13;77.42
44481;BME280;30184;42.018;23.670;2022-10-31T04:11:23;91953.66;;;8.33;77.51
44481;BME280;30184;42.018;23.670;2022-10-31T04:14:20;91887.63;;;7.29;77.22
44481;BME280;30184;42.018;23.670;2022-10-31T04:16:50;91847.16;;;7.25;77.34
44481;BME280;30184;42.018;23.670;2022-10-31T04:19:25;92125.19;;;8.32;77.49
44481;BME280;30184;42.018;23.670;2022-10-31T04:21:54;91978.03;;;7.55;77.59
44481;BME280;30184;42.018;23.670;2022-10-31T04:24:25;92005.25;;;8.46;77.43
44481;BME280;30184;42.018;23.670;2022-10-31T04:26:55;91975.28;;;7.58;77.82
44481;BME280;30184;42.018;23.670;2022-10-31T04:29:24;91962.16;;;6.64;77.89
44481;BME280;30184;42.018;23.670;2022-10-31T04:31:54;91600.03;;;4.88;77.56
44481;BME280;30184;42.018;23.670;2022-10-31T04:34:23;91818.78;;;6.69;77.88
44481;BME280;30184;42.018;23.670;2022-10-31T04:36:52;91682.16;;;6.18;78.20
44481;BME280;30184;42.018;23.670;2022-10-31T04:39:21;91863.75;;;6.83;78.31
44481;BME280;30184;42.018;23.670;2022-10-31T04:42:13;91802.59;;;6.69;78.39
44481;BME280;30184;42.018;23.670;2022-10-31T04:44:42;91832.75;;;7.01;78.52
44481;BME280;30184;42.018;23.670;2022-10-31T04:47:11;91671.50;;;6.04;78.77
44481;BME280;30184;42.018;23.670;2022-10-31T04:49:40;92037.22;;;8.17;78.87
44481;BME280;30184;42.018;23.670;2022-10-31T04:52:13;91996.34;;;8.15;79.14
44481;BME280;30184;42.018;23.670;2022-10-31T04:54:43;91844.38;;;5.88;79.10
44481;BME280;30184;42.018;23.670;2022-10-31T04:57:40;92099.81;;;8.15;79.32
44481;BME280;30184;42.018;23.670;2022-10-31T05:00:10;91929.28;;;7.69;79.03
44481;BME280;30184;42.018;23.670;2022-10-31T05:02:44;91879.41;;;7.02;79.15
44481;BME280;30184;42.018;23.670;2022-10-31T05:05:15;91996.66;;;8.20;79.18
44481;BME280;30184;42.018;23.670;2022-10-31T05:07:46;92006.66;;;8.23;79.05
44481;BME280;30184;42.018;23.670;2022-10-31T05:10:18;92011.63;;;8.25;79.29
44481;BME280;30184;42.018;23.670;2022-10-31T05:12:52;92018.25;;;8.24;79.12
44481;BME280;30184;42.018;23.670;2022-10-31T05:15:41;91755.19;;;6.30;78.84
44481;BME280;30184;42.018;23.670;2022-10-31T05:18:28;92014.69;;;8.31;79.01
44481;BME280;30184;42.018;23.670;2022-10-31T05:21:12;91970.47;;;7.76;78.94
44481;BME280;30184;42.018;23.670;2022-10-31T05:27:13;92079.44;;;8.45;78.76
44481;BME280;30184;42.018;23.670;2022-10-31T05:29:43;91887.56;;;7.32;78.62
44481;BME280;30184;42.018;23.670;2022-10-31T05:32:13;91792.00;;;6.92;78.27
44481;BME280;30184;42.018;23.670;2022-10-31T05:35:11;91625.16;;;5.23;77.94
44481;BME280;30184;42.018;23.670;2022-10-31T05:38:00;91798.44;;;6.61;78.21
44481;BME280;30184;42.018;23.670;2022-10-31T05:40:29;91823.63;;;7.26;78.10
44481;BME280;30184;42.018;23.670;2022-10-31T05:42:59;91789.25;;;6.07;77.94
44481;BME280;30184;42.018;23.670;2022-10-31T05:45:30;91726.97;;;6.01;78.19
44481;BME280;30184;42.018;23.670;2022-10-31T05:48:03;91913.59;;;7.53;77.88
44481;BME280;30184;42.018;23.670;2022-10-31T05:50:50;92076.44;;;9.04;78.01
44481;BME280;30184;42.018;23.670;2022-10-31T05:53:20;91913.44;;;8.05;77.82
44481;BME280;30184;42.018;23.670;2022-10-31T05:55:49;91952.34;;;7.77;77.71
44481;BME280;30184;42.018;23.670;2022-10-31T05:58:19;91784.03;;;6.37;77.37
44481;BME280;30184;42.018;23.670;2022-10-31T06:01:07;91941.84;;;8.50;77.32
44481;BME280;30184;42.018;23.670;2022-10-31T06:03:37;91960.03;;;8.77;77.05
44481;BME280;30184;42.018;23.670;2022-10-31T06:06:09;91698.38;;;6.89;76.48
44481;BME280;30184;42.018;23.670;2022-10-31T06:08:41;91720.72;;;7.24;76.37
44481;BME280;30184;42.018;23.670;2022-10-31T06:11:15;91696.56;;;7.13;76.33
44481;BME280;30184;42.018;23.670;2022-10-31T06:14:03;92027.28;;;9.32;76.55
44481;BME280;30184;42.018;23.670;2022-10-31T06:16:41;92230.41;;;10.20;76.64
44481;BME280;30184;42.018;23.670;2022-10-31T06:19:33;91951.84;;;9.77;76.29
44481;BME280;30184;42.018;23.670;2022-10-31T06:22:02;91880.69;;;9.30;76.01
44481;BME280;30184;42.018;23.670;2022-10-31T06:24:33;91865.44;;;8.93;74.86
44481;BME280;30184;42.018;23.670;2022-10-31T06:27:17;91893.47;;;9.92;81.18
44481;BME280;30184;42.018;23.670;2022-10-31T06:29:46;91914.16;;;10.26;88.11
44481;BME280;30184;42.018;23.670;2022-10-31T06:32:37;92034.41;;;10.78;90.49
44481;BME280;30184;42.018;23.670;2022-10-31T06:35:07;91810.03;;;8.78;91.01
44481;BME280;30184;42.018;23.670;2022-10-31T06:37:37;92088.00;;;10.55;90.42
44481;BME280;30184;42.018;23.670;2022-10-31T06:40:20;91900.28;;;8.37;88.85
44481;BME280;30184;42.018;23.670;2022-10-31T06:43:28;92038.03;;;9.86;88.32
44481;BME280;30184;42.018;23.670;2022-10-31T06:46:14;92055.66;;;10.21;86.57
44481;BME280;30184;42.018;23.670;2022-10-31T06:48:55;92101.69;;;10.01;87.35
44481;BME280;30184;42.018;23.670;2022-10-31T06:51:47;91945.44;;;8.71;85.05
44481;BME280;30184;42.018;23.670;2022-10-31T06:54:17;91900.19;;;8.71;86.02
44481;BME280;30184;42.018;23.670;2022-10-31T06:56:46;92042.44;;;8.99;80.05
44481;BME280;30184;42.018;23.670;2022-10-31T06:59:16;91844.91;;;8.18;79.90
44481;BME280;30184;42.018;23.670;2022-10-31T07:02:11;91916.13;;;8.66;81.92
44481;BME280;30184;42.018;23.670;2022-10-31T07:04:44;91880.44;;;8.17;81.88
44481;BME280;30184;42.018;23.670;2022-10-31T07:07:14;91929.38;;;9.10;82.25
44481;BME280;30184;42.018;23.670;2022-10-31T07:09:45;91830.34;;;8.39;77.68
44481;BME280;30184;42.018;23.670;2022-10-31T07:12:16;91940.47;;;8.35;79.82
44481;BME280;30184;42.018;23.670;2022-10-31T07:14:56;92073.75;;;10.04;81.49
44481;BME280;30184;42.018;23.670;2022-10-31T07:17:25;92078.00;;;10.05;79.93
44481;BME280;30184;42.018;23.670;2022-10-31T07:19:59;91697.22;;;7.51;80.92
44481;BME280;30184;42.018;23.670;2022-10-31T07:22:33;91770.34;;;8.21;77.96
44481;BME280;30184;42.018;23.670;2022-10-31T07:25:08;91987.09;;;8.77;77.01
44481;BME280;30184;42.018;23.670;2022-10-31T07:27:56;91993.00;;;8.68;77.16
44481;BME280;30184;42.018;23.670;2022-10-31T07:30:27;92293.16;;;10.22;75.29
44481;BME280;30184;42.018;23.670;2022-10-31T07:32:57;91761.50;;;8.17;75.00
44481;BME280;30184;42.018;23.670;2022-10-31T07:35:48;91989.66;;;9.38;76.65
44481;BME280;30184;42.018;23.670;2022-10-31T07:38:21;91621.78;;;7.14;76.14
44481;BME280;30184;42.018;23.670;2022-10-31T07:40:51;92063.47;;;10.38;75.89
44481;BME280;30184;42.018;23.670;2022-10-31T07:43:22;91846.81;;;8.48;76.42
44481;BME280;30184;42.018;23.670;2022-10-31T07:46:11;92051.41;;;10.82;75.21
44481;BME280;30184;42.018;23.670;2022-10-31T07:48:59;92017.31;;;10.42;74.64
44481;BME280;30184;42.018;23.670;2022-10-31T07:51:48;91861.72;;;9.30;74.67
44481;BME280;30184;42.018;23.670;2022-10-31T07:54:20;91807.94;;;8.89;72.17
44481;BME280;30184;42.018;23.670;2022-10-31T07:56:49;91975.41;;;10.63;71.07
44481;BME280;30184;42.018;23.670;2022-10-31T07:59:19;91759.38;;;9.81;72.31
44481;BME280;30184;42.018;23.670;2022-10-31T08:01:48;91742.13;;;10.43;70.22
44481;BME280;30184;42.018;23.670;2022-10-31T08:04:32;91992.47;;;11.68;68.99
44481;BME280;30184;42.018;23.670;2022-10-31T08:07:21;91971.06;;;12.31;68.29
44481;BME280;30184;42.018;23.670;2022-10-31T08:09:57;91775.75;;;11.10;67.26
44481;BME280;30184;42.018;23.670;2022-10-31T08:12:30;91937.56;;;12.47;65.86
44481;BME280;30184;42.018;23.670;2022-10-31T08:14:59;91886.75;;;12.69;64.37
44481;BME280;30184;42.018;23.670;2022-10-31T08:17:29;91689.94;;;11.54;63.61
44481;BME280;30184;42.018;23.670;2022-10-31T08:20:00;91739.63;;;12.60;62.12
44481;BME280;30184;42.018;23.670;2022-10-31T08:22:35;91758.56;;;12.76;61.94
44481;BME280;30184;42.018;23.670;2022-10-31T08:25:06;92014.63;;;14.93;60.96
44481;BME280;30184;42.018;23.670;2022-10-31T08:27:36;91777.16;;;12.90;59.62
44481;BME280;30184;42.018;23.670;2022-10-31T08:30:06;92024.13;;;14.33;59.81
44481;BME280;30184;42.018;23.670;2022-10-31T08:32:38;91899.16;;;14.37;59.75
44481;BME280;30184;42.018;23.670;2022-10-31T08:35:25;92046.94;;;15.39;59.44
44481;BME280;30184;42.018;23.670;2022-10-31T08:38:16;91836.97;;;14.10;59.22
44481;BME280;30184;42.018;23.670;2022-10-31T08:40:48;91778.28;;;14.27;56.76
44481;BME280;30184;42.018;23.670;2022-10-31T08:43:18;91811.84;;;15.08;55.67
44481;BME280;30184;42.018;23.670;2022-10-31T08:45:49;91899.44;;;15.93;55.85
44481;BME280;30184;42.018;23.670;2022-10-31T08:48:25;91858.19;;;15.20;52.54
44481;BME280;30184;42.018;23.670;2022-10-31T08:50:56;92066.72;;;17.27;51.13
44481;BME280;30184;42.018;23.670;2022-10-31T08:53:28;91848.72;;;16.62;51.29
44481;BME280;30184;42.018;23.670;2022-10-31T08:56:20;91960.72;;;17.57;49.75
44481;BME280;30184;42.018;23.670;2022-10-31T08:58:50;91750.06;;;16.71;48.78
44481;BME280;30184;42.018;23.670;2022-10-31T09:01:27;92105.75;;;18.75;47.20
44481;BME280;30184;42.018;23.670;2022-10-31T09:03:57;91943.56;;;18.27;45.88
44481;BME280;30184;42.018;23.670;2022-10-31T09:06:26;91806.91;;;17.27;44.75
44481;BME280;30184;42.018;23.670;2022-10-31T09:08:58;91940.63;;;18.93;45.05
44481;BME280;30184;42.018;23.670;2022-10-31T09:11:27;91624.91;;;17.15;42.97
44481;BME280;30184;42.018;23.670;2022-10-31T09:14:10;91921.25;;;19.61;42.63
44481;BME280;30184;42.018;23.670;2022-10-31T09:16:39;92005.94;;;20.16;42.90
44481;BME280;30184;42.018;23.670;2022-10-31T09:19:15;91986.09;;;20.12;42.32
44481;BME280;30184;42.018;23.670;2022-10-31T09:21:46;91651.16;;;18.14;42.45
44481;BME280;30184;42.018;23.670;2022-10-31T09:24:17;91952.28;;;19.47;41.49
44481;BME280;30184;42.018;23.670;2022-10-31T09:26:46;92027.38;;;20.41;41.82
44481;BME280;30184;42.018;23.670;2022-10-31T09:29:26;91807.41;;;18.80;41.91
44481;BME280;30184;42.018;23.670;2022-10-31T09:31:59;92048.16;;;20.57;41.05
44481;BME280;30184;42.018;23.670;2022-10-31T09:34:30;92021.53;;;20.54;41.41
44481;BME280;30184;42.018;23.670;2022-10-31T09:37:06;91600.13;;;18.07;41.80
44481;BME280;30184;42.018;23.670;2022-10-31T09:39:37;91823.69;;;19.62;40.67
44481;BME280;30184;42.018;23.670;2022-10-31T09:42:36;91848.66;;;19.44;40.86
44481;BME280;30184;42.018;23.670;2022-10-31T09:45:18;91669.06;;;18.24;40.47
44481;BME280;30184;42.018;23.670;2022-10-31T09:48:06;91760.66;;;18.65;39.77
44481;BME280;30184;42.018;23.670;2022-10-31T09:50:59;91965.41;;;20.02;40.88
44481;BME280;30184;42.018;23.670;2022-10-31T09:53:49;92034.72;;;20.65;41.01
44481;BME280;30184;42.018;23.670;2022-10-31T09:56:24;92099.28;;;20.58;40.50
44481;BME280;30184;42.018;23.670;2022-10-31T09:58:59;91845.75;;;19.68;41.21
44481;BME280;30184;42.018;23.670;2022-10-31T10:01:34;91677.19;;;17.89;40.42
44481;BME280;30184;42.018;23.670;2022-10-31T10:04:18;91959.22;;;19.57;41.17
44481;BME280;30184;42.018;23.670;2022-10-31T10:07:05;91999.00;;;20.35;41.39
44481;BME280;30184;42.018;23.670;2022-10-31T10:09:44;91757.56;;;18.57;41.63
44481;BME280;30184;42.018;23.670;2022-10-31T10:12:43;91731.47;;;18.53;41.02
44481;BME280;30184;42.018;23.670;2022-10-31T10:15:34;91590.56;;;17.59;41.14
44481;BME280;30184;42.018;23.670;2022-10-31T10:18:14;91871.91;;;19.43;41.30
44481;BME280;30184;42.018;23.670;2022-10-31T10:20:58;92069.97;;;20.26;41.29
44481;BME280;30184;42.018;23.670;2022-10-31T10:23:39;91725.63;;;18.60;41.57
44481;BME280;30184;42.018;23.670;2022-10-31T10:26:18;91839.94;;;19.31;41.46
44481;BME280;30184;42.018;23.670;2022-10-31T10:28:54;91723.81;;;18.57;41.86
44481;BME280;30184;42.018;23.670;2022-10-31T10:31:30;91633.75;;;17.73;42.05
44481;BME280;30184;42.018;23.670;2022-10-31T10:34:07;91779.63;;;18.78;41.90
44481;BME280;30184;42.018;23.670;2022-10-31T10:36:42;91857.78;;;19.50;41.43
44481;BME280;30184;42.018;23.670;2022-10-31T10:39:17;91955.72;;;19.42;41.14
44481;BME280;30184;42.018;23.670;2022-10-31T10:41:48;91852.06;;;18.89;41.49
44481;BME280;30184;42.018;23.670;2022-10-31T10:44:33;91760.09;;;18.76;41.26
44481;BME280;30184;42.018;23.670;2022-10-31T10:47:20;92087.25;;;20.56;40.81
44481;BME280;30184;42.018;23.670;2022-10-31T10:50:13;91851.56;;;19.70;40.45
44481;BME280;30184;42.018;23.670;2022-10-31T10:52:49;91878.72;;;19.62;40.36
44481;BME280;30184;42.018;23.670;2022-10-31T10:55:32;92028.22;;;20.88;40.00
44481;BME280;30184;42.018;23.670;2022-10-31T10:58:07;91774.63;;;19.11;39.98
44481;BME280;30184;42.018;23.670;2022-10-31T11:00:40;91703.75;;;18.86;39.20
44481;BME280;30184;42.018;23.670;2022-10-31T11:03:10;91887.31;;;20.25;39.66
44481;BME280;30184;42.018;23.670;2022-10-31T11:05:41;91754.13;;;19.27;39.41
44481;BME280;30184;42.018;23.670;2022-10-31T11:08:24;91901.03;;;19.64;39.43
44481;BME280;30184;42.018;23.670;2022-10-31T11:10:59;91635.44;;;18.14;39.96
44481;BME280;30184;42.018;23.670;2022-10-31T11:13:30;91919.44;;;20.28;40.31
44481;BME280;30184;42.018;23.670;2022-10-31T11:16:04;92098.16;;;20.50;40.47
44481;BME280;30184;42.018;23.670;2022-10-31T11:18:38;91593.41;;;18.08;40.28
44481;BME280;30184;42.018;23.670;2022-10-31T11:21:20;91915.97;;;20.13;39.94
44481;BME280;30184;42.018;23.670;2022-10-31T11:23:50;91700.72;;;18.84;39.97
44481;BME280;30184;42.018;23.670;2022-10-31T11:26:20;91976.25;;;20.61;40.19
44481;BME280;30184;42.018;23.670;2022-10-31T11:28:56;92022.03;;;20.53;40.07
44481;BME280;30184;42.018;23.670;2022-10-31T11:31:27;91736.81;;;18.91;40.17
44481;BME280;30184;42.018;23.670;2022-10-31T11:33:58;91876.03;;;19.83;40.08
44481;BME280;30184;42.018;23.670;2022-10-31T11:36:30;91715.00;;;18.68;39.95
44481;BME280;30184;42.018;23.670;2022-10-31T11:39:02;91927.50;;;19.77;40.16
44481;BME280;30184;42.018;23.670;2022-10-31T11:41:33;91719.72;;;18.67;40.13
44481;BME280;30184;42.018;23.670;2022-10-31T11:44:10;91896.25;;;19.15;40.40
44481;BME280;30184;42.018;23.670;2022-10-31T11:46:44;91898.69;;;19.43;40.29
44481;BME280;30184;42.018;23.670;2022-10-31T11:49:17;91942.59;;;19.81;39.77
44481;BME280;30184;42.018;23.670;2022-10-31T11:51:49;91986.47;;;20.55;39.20
44481;BME280;30184;42.018;23.670;2022-10-31T11:54:22;91464.28;;;17.24;39.33
44481;BME280;30184;42.018;23.670;2022-10-31T11:56:52;91906.06;;;20.01;39.37
44481;BME280;30184;42.018;23.670;2022-10-31T11:59:25;91722.66;;;18.49;39.16
44481;BME280;30184;42.018;23.670;2022-10-31T12:01:59;91614.19;;;18.30;38.83
44481;BME280;30184;42.018;23.670;2022-10-31T12:04:38;91791.72;;;19.15;38.46
44481;BME280;30184;42.018;23.670;2022-10-31T12:07:09;91846.56;;;19.89;38.95
44481;BME280;30184;42.018;23.670;2022-10-31T12:09:38;91997.34;;;20.64;38.50
44481;BME280;30184;42.018;23.670;2022-10-31T12:12:29;91705.34;;;18.43;39.04
44481;BME280;30184;42.018;23.670;2022-10-31T12:15:12;91876.22;;;19.79;38.84
44481;BME280;30184;42.018;23.670;2022-10-31T12:17:52;91949.38;;;20.76;37.59
44481;BME280;30184;42.018;23.670;2022-10-31T12:20:32;91613.28;;;18.03;38.25
44481;BME280;30184;42.018;23.670;2022-10-31T12:23:11;92058.19;;;20.75;38.16
44481;BME280;30184;42.018;23.670;2022-10-31T12:25:51;91693.09;;;18.58;38.42
44481;BME280;30184;42.018;23.670;2022-10-31T12:28:40;91858.06;;;20.07;38.36
44481;BME280;30184;42.018;23.670;2022-10-31T12:31:27;91872.28;;;19.86;37.96
44481;BME280;30184;42.018;23.670;2022-10-31T12:34:07;91952.53;;;20.48;38.16
44481;BME280;30184;42.018;23.670;2022-10-31T12:36:46;91647.19;;;18.15;38.61
44481;BME280;30184;42.018;23.670;2022-10-31T12:39:25;91672.06;;;18.70;38.52
44481;BME280;30184;42.018;23.670;2022-10-31T12:42:02;92054.50;;;20.63;37.98
44481;BME280;30184;42.018;23.670;2022-10-31T12:44:58;91720.22;;;19.00;37.87
44481;BME280;30184;42.018;23.670;2022-10-31T12:47:44;91894.28;;;19.65;38.05
44481;BME280;30184;42.018;23.670;2022-10-31T12:50:28;91957.03;;;20.66;37.73
44481;BME280;30184;42.018;23.670;2022-10-31T12:53:15;91834.47;;;19.66;37.41
44481;BME280;30184;42.018;23.670;2022-10-31T12:55:56;91732.25;;;18.53;38.43
44481;BME280;30184;42.018;23.670;2022-10-31T12:58:31;91805.84;;;19.58;37.99
44481;BME280;30184;42.018;23.670;2022-10-31T13:01:08;92043.69;;;20.80;38.12
44481;BME280;30184;42.018;23.670;2022-10-31T13:03:44;91724.44;;;19.16;37.43
44481;BME280;30184;42.018;23.670;2022-10-31T13:06:19;91835.13;;;19.96;37.34
44481;BME280;30184;42.018;23.670;2022-10-31T13:08:52;91706.84;;;19.28;37.12
44481;BME280;30184;42.018;23.670;2022-10-31T13:11:25;91886.38;;;20.08;37.39
44481;BME280;30184;42.018;23.670;2022-10-31T13:14:02;91655.28;;;18.68;37.07
44481;BME280;30184;42.018;23.670;2022-10-31T13:16:37;91811.56;;;19.95;36.80
44481;BME280;30184;42.018;23.670;2022-10-31T13:19:15;91784.53;;;19.73;37.59
44481;BME280;30184;42.018;23.670;2022-10-31T13:21:55;91713.94;;;19.00;37.88
44481;BME280;30184;42.018;23.670;2022-10-31T13:24:31;91718.78;;;19.05;37.57
44481;BME280;30184;42.018;23.670;2022-10-31T13:27:11;92084.56;;;20.61;37.95
44481;BME280;30184;42.018;23.670;2022-10-31T13:29:46;91995.00;;;20.36;37.23
44481;BME280;30184;42.018;23.670;2022-10-31T13:32:17;91532.38;;;17.54;37.30
44481;BME280;30184;42.018;23.670;2022-10-31T13:34:50;91744.00;;;18.69;38.32
44481;BME280;30184;42.018;23.670;2022-10-31T13:37:28;91847.25;;;19.34;38.02
44481;BME280;30184;42.018;23.670;2022-10-31T13:40:09;91573.91;;;17.47;38.15
44481;BME280;30184;42.018;23.670;2022-10-31T13:42:51;92055.09;;;20.03;38.77
44481;BME280;30184;42.018;23.670;2022-10-31T13:45:25;91937.31;;;19.04;38.72
44481;BME280;30184;42.018;23.670;2022-10-31T13:47:58;91548.50;;;16.94;38.87
44481;BME280;30184;42.018;23.670;2022-10-31T13:50:28;91815.13;;;18.22;39.09